sensor_id;sensor_type;location;lat;lon;timestamp;pressure;altitude;pressure_sealevel;temperature;humidity
57234;BME280;43090;52.604;13.318;2023-08-06T00:00:27;100307.16;;;17.95;96.55
57234;BME280;43090;52.604;13.318;2023-08-06T00:02:54;100297.63;;;17.91;96.88
57234;BME280;43090;52.604;13.318;2023-08-06T00:05:21;100289.19;;;18.03;95.74
57234;BME280;43090;52.604;13.318;2023-08-06T00:07:48;100307.81;;;18.06;95.78
57234;BME280;43090;52.604;13.318;2023-08-06T00:10:15;100294.53;;;17.78;97.05
57234;BME280;43090;52.604;13.318;2023-08-06T00:12:42;100307.50;;;18.01;96.25
57234;BME280;43090;52.604;13.318;2023-08-06T00:15:10;100298.97;;;17.87;96.54
57234;BME280;43090;52.604;13.318;2023-08-06T00:17:37;100307.63;;;17.99;96.19
57234;BME280;43090;52.604;13.318;2023-08-06T00:20:04;100301.22;;;18.08;95.94
57234;BME280;43090;52.604;13.318;2023-08-06T00:22:36;100291.88;;;17.86;96.84
57234;BME280;43090;52.604;13.318;2023-08-06T00:25:05;100280.69;;;17.81;96.80
57234;BME280;43090;52.604;13.318;2023-08-06T00:27:31;100275.28;;;17.81;97.17
57234;BME280;43090;52.604;13.318;2023-08-06T00:29:59;100277.50;;;17.94;96.61
57234;BME280;43090;52.604;13.318;2023-08-06T00:32:25;100290.72;;;18.05;96.57
57234;BME280;43090;52.604;13.318;2023-08-06T00:34:52;100268.84;;;17.82;97.52
57234;BME280;43090;52.604;13.318;2023-08-06T00:37:18;100265.09;;;17.83;97.60
57234;BME280;43090;52.604;13.318;2023-08-06T00:39:45;100274.97;;;17.92;97.35
57234;BME280;43090;52.604;13.318;2023-08-06T00:42:12;100279.38;;;18.02;97.06
57234;BME280;43090;52.604;13.318;2023-08-06T00:44:38;100261.41;;;17.84;97.25
57234;BME280;43090;52.604;13.318;2023-08-06T00:47:06;100278.19;;;17.96;96.81
57234;BME280;43090;52.604;13.318;2023-08-06T00:49:37;100288.13;;;17.79;97.73
57234;BME280;43090;52.604;13.318;2023-08-06T00:52:05;100286.47;;;17.86;97.79
57234;BME280;43090;52.604;13.318;2023-08-06T00:54:34;100273.06;;;17.85;97.13
57234;BME280;43090;52.604;13.318;2023-08-06T00:57:01;100265.81;;;17.85;97.29
57234;BME280;43090;52.604;13.318;2023-08-06T00:59:29;100268.00;;;17.90;96.89
57234;BME280;43090;52.604;13.318;2023-08-06T01:01:57;100270.56;;;17.91;96.91
57234;BME280;43090;52.604;13.318;2023-08-06T01:04:23;100264.28;;;17.91;97.28
57234;BME280;43090;52.604;13.318;2023-08-06T01:07:10;100258.50;;;17.86;97.24
57234;BME280;43090;52.604;13.318;2023-08-06T01:12:34;100267.50;;;17.86;97.85
57234;BME280;43090;52.604;13.318;2023-08-06T01:15:12;100259.34;;;17.78;97.80
57234;BME280;43090;52.604;13.318;2023-08-06T01:17:41;100255.13;;;17.67;98.61
57234;BME280;43090;52.604;13.318;2023-08-06T01:20:08;100255.97;;;17.76;98.25
57234;BME280;43090;52.604;13.318;2023-08-06T01:22:35;100250.75;;;17.82;98.09
57234;BME280;43090;52.604;13.318;2023-08-06T01:25:02;100254.28;;;17.83;97.60
57234;BME280;43090;52.604;13.318;2023-08-06T01:27:48;100250.56;;;17.84;98.21
57234;BME280;43090;52.604;13.318;2023-08-06T01:30:24;100245.50;;;17.81;98.60
57234;BME280;43090;52.604;13.318;2023-08-06T01:33:00;100244.28;;;17.75;98.34
57234;BME280;43090;52.604;13.318;2023-08-06T01:35:28;100234.97;;;17.78;98.51
57234;BME280;43090;52.604;13.318;2023-08-06T01:52:03;100212.25;;;16.78;100.00
57234;BME280;43090;52.604;13.318;2023-08-06T01:54:29;100213.56;;;17.09;100.00
57234;BME280;43090;52.604;13.318;2023-08-06T01:56:56;100203.63;;;17.09;100.00
57234;BME280;43090;52.604;13.318;2023-08-06T01:59:24;100194.00;;;17.23;100.00
57234;BME280;43090;52.604;13.318;2023-08-06T02:01:51;100199.09;;;17.35;100.00
57234;BME280;43090;52.604;13.318;2023-08-06T02:04:18;100202.31;;;17.46;100.00
57234;BME280;43090;52.604;13.318;2023-08-06T02:06:44;100195.72;;;17.49;100.00
57234;BME280;43090;52.604;13.318;2023-08-06T02:09:11;100210.63;;;17.70;100.00
57234;BME280;43090;52.604;13.318;2023-08-06T02:11:37;100198.78;;;17.62;100.00
57234;BME280;43090;52.604;13.318;2023-08-06T02:14:04;100190.31;;;17.65;100.00
57234;BME280;43090;52.604;13.318;2023-08-06T02:16:30;100177.63;;;17.66;100.00
57234;BME280;43090;52.604;13.318;2023-08-06T02:18:57;100196.06;;;17.79;100.00
57234;BME280;43090;52.604;13.318;2023-08-06T02:21:23;100193.19;;;17.72;100.00
57234;BME280;43090;52.604;13.318;2023-08-06T02:23:50;100183.72;;;17.60;100.00
57234;BME280;43090;52.604;13.318;2023-08-06T02:26:16;100189.47;;;17.73;100.00
57234;BME280;43090;52.604;13.318;2023-08-06T02:28:43;100190.00;;;17.77;99.59
57234;BME280;43090;52.604;13.318;2023-08-06T02:31:09;100188.66;;;17.73;99.92
57234;BME280;43090;52.604;13.318;2023-08-06T02:33:36;100193.34;;;17.79;99.33
57234;BME280;43090;52.604;13.318;2023-08-06T02:36:03;100186.78;;;17.73;99.80
57234;BME280;43090;52.604;13.318;2023-08-06T02:38:31;100180.16;;;17.84;99.51
57234;BME280;43090;52.604;13.318;2023-08-06T02:40:57;100170.69;;;17.80;99.51
57234;BME280;43090;52.604;13.318;2023-08-06T02:43:24;100177.13;;;17.79;99.38
57234;BME280;43090;52.604;13.318;2023-08-06T02:45:51;100178.97;;;17.87;99.37
57234;BME280;43090;52.604;13.318;2023-08-06T02:48:17;100166.97;;;17.81;98.99
57234;BME280;43090;52.604;13.318;2023-08-06T02:50:44;100171.53;;;17.72;99.55
57234;BME280;43090;52.604;13.318;2023-08-06T02:53:11;100165.59;;;17.69;100.00
57234;BME280;43090;52.604;13.318;2023-08-06T02:55:37;100153.75;;;17.70;100.00
57234;BME280;43090;52.604;13.318;2023-08-06T02:58:04;100155.13;;;17.82;99.48
57234;BME280;43090;52.604;13.318;2023-08-06T03:00:30;100153.44;;;17.81;99.37
57234;BME280;43090;52.604;13.318;2023-08-06T03:02:57;100146.84;;;17.84;98.95
57234;BME280;43090;52.604;13.318;2023-08-06T03:05:23;100157.16;;;17.96;98.63
57234;BME280;43090;52.604;13.318;2023-08-06T03:07:50;100143.28;;;17.67;100.00
57234;BME280;43090;52.604;13.318;2023-08-06T03:10:16;100157.16;;;17.72;99.94
57234;BME280;43090;52.604;13.318;2023-08-06T03:12:43;100165.97;;;17.82;99.30
57234;BME280;43090;52.604;13.318;2023-08-06T03:15:09;100156.84;;;17.58;100.00
57234;BME280;43090;52.604;13.318;2023-08-06T03:17:36;100153.25;;;17.66;100.00
57234;BME280;43090;52.604;13.318;2023-08-06T03:20:03;100151.06;;;17.70;100.00
57234;BME280;43090;52.604;13.318;2023-08-06T03:22:29;100134.84;;;17.53;100.00
57234;BME280;43090;52.604;13.318;2023-08-06T03:24:56;100138.06;;;17.65;100.00
57234;BME280;43090;52.604;13.318;2023-08-06T03:27:22;100150.06;;;17.71;100.00
57234;BME280;43090;52.604;13.318;2023-08-06T03:29:49;100148.69;;;17.75;100.00
57234;BME280;43090;52.604;13.318;2023-08-06T03:32:16;100145.00;;;17.68;100.00
57234;BME280;43090;52.604;13.318;2023-08-06T03:34:43;100147.84;;;17.66;100.00
57234;BME280;43090;52.604;13.318;2023-08-06T03:37:09;100136.34;;;17.64;100.00
57234;BME280;43090;52.604;13.318;2023-08-06T03:39:36;100115.88;;;17.61;100.00
57234;BME280;43090;52.604;13.318;2023-08-06T03:42:02;100123.16;;;17.69;100.00
57234;BME280;43090;52.604;13.318;2023-08-06T03:44:29;100125.34;;;17.82;100.00
57234;BME280;43090;52.604;13.318;2023-08-06T03:46:57;100118.94;;;17.58;100.00
57234;BME280;43090;52.604;13.318;2023-08-06T03:49:23;100116.22;;;17.58;100.00
57234;BME280;43090;52.604;13.318;2023-08-06T03:51:50;100113.00;;;17.63;100.00
57234;BME280;43090;52.604;13.318;2023-08-06T03:54:17;100106.22;;;17.67;100.00
57234;BME280;43090;52.604;13.318;2023-08-06T03:56:43;100104.19;;;17.53;100.00
57234;BME280;43090;52.604;13.318;2023-08-06T03:59:10;100107.25;;;17.58;100.00
57234;BME280;43090;52.604;13.318;2023-08-06T04:01:36;100093.72;;;17.49;100.00
57234;BME280;43090;52.604;13.318;2023-08-06T04:04:03;100093.41;;;17.61;100.00
57234;BME280;43090;52.604;13.318;2023-08-06T04:06:29;100099.47;;;17.63;100.00
57234;BME280;43090;52.604;13.318;2023-08-06T04:08:56;100092.69;;;17.59;100.00
57234;BME280;43090;52.604;13.318;2023-08-06T04:11:22;100089.50;;;17.55;100.00
57234;BME280;43090;52.604;13.318;2023-08-06T04:13:49;100086.78;;;17.55;100.00
57234;BME280;43090;52.604;13.318;2023-08-06T04:16:15;100077.81;;;17.55;100.00
57234;BME280;43090;52.604;13.318;2023-08-06T04:18:42;100081.34;;;17.63;100.00
57234;BME280;43090;52.604;13.318;2023-08-06T04:21:08;100083.56;;;17.60;100.00
57234;BME280;43090;52.604;13.318;2023-08-06T04:23:35;100081.19;;;17.65;100.00
57234;BME280;43090;52.604;13.318;2023-08-06T04:26:01;100081.84;;;17.67;100.00
57234;BME280;43090;52.604;13.318;2023-08-06T04:28:28;100074.44;;;17.69;100.00
57234;BME280;43090;52.604;13.318;2023-08-06T04:30:54;100079.00;;;17.60;100.00
57234;BME280;43090;52.604;13.318;2023-08-06T04:33:22;100072.25;;;17.56;100.00
57234;BME280;43090;52.604;13.318;2023-08-06T04:35:54;100067.50;;;17.42;100.00
57234;BME280;43090;52.604;13.318;2023-08-06T04:38:21;100056.34;;;17.45;100.00
57234;BME280;43090;52.604;13.318;2023-08-06T04:40:47;100059.06;;;17.53;100.00
57234;BME280;43090;52.604;13.318;2023-08-06T04:43:14;100060.91;;;17.61;100.00
57234;BME280;43090;52.604;13.318;2023-08-06T04:45:46;100051.59;;;17.55;100.00
57234;BME280;43090;52.604;13.318;2023-08-06T04:48:13;100050.41;;;17.58;100.00
57234;BME280;43090;52.604;13.318;2023-08-06T04:50:43;100045.66;;;17.68;100.00
57234;BME280;43090;52.604;13.318;2023-08-06T04:53:09;100038.94;;;17.56;100.00
57234;BME280;43090;52.604;13.318;2023-08-06T04:55:36;100042.25;;;17.66;100.00
57234;BME280;43090;52.604;13.318;2023-08-06T04:58:02;100028.91;;;17.73;100.00
57234;BME280;43090;52.604;13.318;2023-08-06T05:00:29;100035.34;;;17.72;100.00
57234;BME280;43090;52.604;13.318;2023-08-06T05:02:55;100035.34;;;17.63;100.00
57234;BME280;43090;52.604;13.318;2023-08-06T05:05:22;100031.59;;;17.81;100.00
57234;BME280;43090;52.604;13.318;2023-08-06T05:07:49;100038.22;;;17.70;100.00
57234;BME280;43090;52.604;13.318;2023-08-06T05:10:16;100035.88;;;17.51;100.00
57234;BME280;43090;52.604;13.318;2023-08-06T05:12:42;100034.38;;;17.48;100.00
57234;BME280;43090;52.604;13.318;2023-08-06T05:15:09;100041.09;;;17.60;100.00
57234;BME280;43090;52.604;13.318;2023-08-06T05:17:35;100029.94;;;17.55;100.00
57234;BME280;43090;52.604;13.318;2023-08-06T05:20:02;100025.53;;;17.71;100.00
57234;BME280;43090;52.604;13.318;2023-08-06T05:22:29;100020.13;;;17.54;100.00
57234;BME280;43090;52.604;13.318;2023-08-06T05:24:56;100021.66;;;17.48;100.00
57234;BME280;43090;52.604;13.318;2023-08-06T05:27:22;100014.03;;;17.60;100.00
57234;BME280;43090;52.604;13.318;2023-08-06T05:29:48;100014.69;;;17.71;100.00
57234;BME280;43090;52.604;13.318;2023-08-06T05:32:15;100000.97;;;17.72;100.00
57234;BME280;43090;52.604;13.318;2023-08-06T05:34:41;100003.50;;;17.82;100.00
57234;BME280;43090;52.604;13.318;2023-08-06T05:37:08;100001.44;;;17.84;100.00
57234;BME280;43090;52.604;13.318;2023-08-06T05:39:35;100000.75;;;17.90;100.00
57234;BME280;43090;52.604;13.318;2023-08-06T05:42:02;99994.84;;;17.87;100.00
57234;BME280;43090;52.604;13.318;2023-08-06T05:44:29;99992.97;;;17.87;100.00
57234;BME280;43090;52.604;13.318;2023-08-06T05:46:56;99987.44;;;17.72;100.00
57234;BME280;43090;52.604;13.318;2023-08-06T05:49:22;99984.91;;;17.71;100.00
57234;BME280;43090;52.604;13.318;2023-08-06T05:51:49;99994.31;;;17.91;100.00
57234;BME280;43090;52.604;13.318;2023-08-06T05:54:16;100006.00;;;17.92;100.00
57234;BME280;43090;52.604;13.318;2023-08-06T05:56:43;100003.47;;;17.90;100.00
57234;BME280;43090;52.604;13.318;2023-08-06T05:59:09;99997.34;;;17.96;100.00
57234;BME280;43090;52.604;13.318;2023-08-06T06:01:35;100004.97;;;18.01;100.00
57234;BME280;43090;52.604;13.318;2023-08-06T06:04:02;100003.81;;;17.95;100.00
57234;BME280;43090;52.604;13.318;2023-08-06T06:06:29;99996.28;;;17.58;100.00
57234;BME280;43090;52.604;13.318;2023-08-06T06:09:02;100008.56;;;17.85;100.00
57234;BME280;43090;52.604;13.318;2023-08-06T06:11:28;99999.47;;;17.70;100.00
57234;BME280;43090;52.604;13.318;2023-08-06T06:13:55;99989.28;;;17.80;100.00
57234;BME280;43090;52.604;13.318;2023-08-06T06:16:21;99992.19;;;17.62;100.00
57234;BME280;43090;52.604;13.318;2023-08-06T06:18:48;99969.38;;;17.56;100.00
57234;BME280;43090;52.604;13.318;2023-08-06T06:21:14;99974.25;;;17.69;100.00
57234;BME280;43090;52.604;13.318;2023-08-06T06:23:44;99962.25;;;17.63;100.00
57234;BME280;43090;52.604;13.318;2023-08-06T06:26:25;99957.34;;;17.67;100.00
57234;BME280;43090;52.604;13.318;2023-08-06T06:28:57;99971.34;;;17.79;100.00
57234;BME280;43090;52.604;13.318;2023-08-06T06:31:23;99977.75;;;17.86;100.00
57234;BME280;43090;52.604;13.318;2023-08-06T06:37:56;99976.06;;;17.85;100.00
57234;BME280;43090;52.604;13.318;2023-08-06T06:40:23;99953.06;;;17.81;100.00
57234;BME280;43090;52.604;13.318;2023-08-06T06:42:50;99959.94;;;18.00;100.00
57234;BME280;43090;52.604;13.318;2023-08-06T06:45:16;99955.72;;;17.97;100.00
57234;BME280;43090;52.604;13.318;2023-08-06T06:47:43;99978.03;;;18.08;100.00
57234;BME280;43090;52.604;13.318;2023-08-06T06:53:26;99944.91;;;17.89;100.00
57234;BME280;43090;52.604;13.318;2023-08-06T07:02:47;99950.63;;;18.03;100.00
57234;BME280;43090;52.604;13.318;2023-08-06T07:08:54;99957.38;;;18.07;100.00
57234;BME280;43090;52.604;13.318;2023-08-06T07:11:20;99963.78;;;18.14;100.00
57234;BME280;43090;52.604;13.318;2023-08-06T07:13:49;99975.00;;;18.34;100.00
57234;BME280;43090;52.604;13.318;2023-08-06T07:16:22;99977.28;;;18.22;100.00
57234;BME280;43090;52.604;13.318;2023-08-06T07:18:48;99981.19;;;18.20;100.00
57234;BME280;43090;52.604;13.318;2023-08-06T07:21:15;99984.97;;;18.34;100.00
57234;BME280;43090;52.604;13.318;2023-08-06T07:23:41;99968.75;;;17.94;100.00
57234;BME280;43090;52.604;13.318;2023-08-06T07:26:08;99968.00;;;18.17;100.00
57234;BME280;43090;52.604;13.318;2023-08-06T07:28:35;99980.34;;;18.19;100.00
57234;BME280;43090;52.604;13.318;2023-08-06T07:31:02;99989.53;;;18.10;100.00
57234;BME280;43090;52.604;13.318;2023-08-06T07:33:34;99983.06;;;18.19;100.00
57234;BME280;43090;52.604;13.318;2023-08-06T07:36:10;99961.91;;;18.14;100.00
57234;BME280;43090;52.604;13.318;2023-08-06T07:38:37;99976.72;;;18.27;100.00
57234;BME280;43090;52.604;13.318;2023-08-06T07:41:04;99966.06;;;18.25;100.00
57234;BME280;43090;52.604;13.318;2023-08-06T07:43:31;99949.03;;;18.17;100.00
57234;BME280;43090;52.604;13.318;2023-08-06T07:45:59;99956.88;;;18.03;100.00
57234;BME280;43090;52.604;13.318;2023-08-06T07:48:28;99957.19;;;18.08;100.00
57234;BME280;43090;52.604;13.318;2023-08-06T07:50:55;99978.38;;;18.36;100.00
57234;BME280;43090;52.604;13.318;2023-08-06T07:53:26;99973.88;;;18.20;100.00
57234;BME280;43090;52.604;13.318;2023-08-06T07:56:06;99974.94;;;18.11;100.00
57234;BME280;43090;52.604;13.318;2023-08-06T07:58:32;99967.88;;;18.02;100.00
57234;BME280;43090;52.604;13.318;2023-08-06T08:00:59;99965.94;;;18.19;100.00
57234;BME280;43090;52.604;13.318;2023-08-06T08:03:29;99967.44;;;18.21;100.00
57234;BME280;43090;52.604;13.318;2023-08-06T08:05:55;99981.88;;;18.45;100.00
57234;BME280;43090;52.604;13.318;2023-08-06T08:08:25;99977.00;;;18.09;100.00
57234;BME280;43090;52.604;13.318;2023-08-06T08:10:52;99959.41;;;18.36;100.00
57234;BME280;43090;52.604;13.318;2023-08-06T08:13:18;99961.22;;;18.44;100.00
57234;BME280;43090;52.604;13.318;2023-08-06T08:15:45;99956.78;;;18.51;100.00
57234;BME280;43090;52.604;13.318;2023-08-06T08:18:11;99957.22;;;18.55;100.00
57234;BME280;43090;52.604;13.318;2023-08-06T08:20:38;99943.13;;;18.36;100.00
57234;BME280;43090;52.604;13.318;2023-08-06T08:23:04;99940.81;;;18.56;100.00
57234;BME280;43090;52.604;13.318;2023-08-06T08:25:31;99946.06;;;18.58;100.00
57234;BME280;43090;52.604;13.318;2023-08-06T08:27:58;99937.38;;;18.39;100.00
57234;BME280;43090;52.604;13.318;2023-08-06T08:30:24;99945.50;;;18.62;100.00
57234;BME280;43090;52.604;13.318;2023-08-06T08:32:51;99943.63;;;18.63;100.00
57234;BME280;43090;52.604;13.318;2023-08-06T08:35:18;99937.34;;;18.62;100.00
57234;BME280;43090;52.604;13.318;2023-08-06T08:37:45;99941.13;;;18.61;100.00
57234;BME280;43090;52.604;13.318;2023-08-06T08:40:11;99939.44;;;18.60;100.00
57234;BME280;43090;52.604;13.318;2023-08-06T08:42:38;99949.09;;;18.78;100.00
57234;BME280;43090;52.604;13.318;2023-08-06T08:45:06;99937.50;;;18.46;100.00
57234;BME280;43090;52.604;13.318;2023-08-06T08:47:36;99930.28;;;18.61;100.00
57234;BME280;43090;52.604;13.318;2023-08-06T08:50:05;99924.25;;;18.51;100.00
57234;BME280;43090;52.604;13.318;2023-08-06T08:52:33;99922.72;;;18.72;100.00
57234;BME280;43090;52.604;13.318;2023-08-06T08:55:01;99917.06;;;18.58;100.00
57234;BME280;43090;52.604;13.318;2023-08-06T08:57:27;99918.34;;;18.71;100.00
57234;BME280;43090;52.604;13.318;2023-08-06T08:59:54;99910.47;;;18.76;100.00
57234;BME280;43090;52.604;13.318;2023-08-06T09:02:21;99917.75;;;18.60;100.00
57234;BME280;43090;52.604;13.318;2023-08-06T09:04:48;99903.09;;;18.46;100.00
57234;BME280;43090;52.604;13.318;2023-08-06T09:07:18;99906.97;;;18.52;100.00
57234;BME280;43090;52.604;13.318;2023-08-06T09:09:47;99889.13;;;18.35;100.00
57234;BME280;43090;52.604;13.318;2023-08-06T09:12:15;99891.84;;;18.58;100.00
57234;BME280;43090;52.604;13.318;2023-08-06T09:14:42;99880.72;;;18.68;100.00
57234;BME280;43090;52.604;13.318;2023-08-06T09:17:09;99899.47;;;18.54;100.00
57234;BME280;43090;52.604;13.318;2023-08-06T09:19:42;99874.19;;;18.62;100.00
57234;BME280;43090;52.604;13.318;2023-08-06T09:22:35;99874.00;;;18.63;100.00
57234;BME280;43090;52.604;13.318;2023-08-06T09:25:01;99865.72;;;18.80;100.00
57234;BME280;43090;52.604;13.318;2023-08-06T09:27:30;99851.50;;;18.78;100.00
57234;BME280;43090;52.604;13.318;2023-08-06T09:29:56;99866.16;;;18.92;100.00
57234;BME280;43090;52.604;13.318;2023-08-06T09:32:23;99875.97;;;18.70;100.00
57234;BME280;43090;52.604;13.318;2023-08-06T09:34:55;99875.16;;;18.84;100.00
57234;BME280;43090;52.604;13.318;2023-08-06T09:37:22;99865.53;;;18.81;100.00
57234;BME280;43090;52.604;13.318;2023-08-06T09:39:48;99856.97;;;18.31;100.00
57234;BME280;43090;52.604;13.318;2023-08-06T09:42:15;99872.84;;;18.58;100.00
57234;BME280;43090;52.604;13.318;2023-08-06T09:44:41;99856.53;;;18.43;100.00
57234;BME280;43090;52.604;13.318;2023-08-06T09:47:08;99853.50;;;18.61;100.00
57234;BME280;43090;52.604;13.318;2023-08-06T09:52:01;99855.59;;;18.74;100.00
57234;BME280;43090;52.604;13.318;2023-08-06T09:54:28;99837.81;;;18.56;100.00
57234;BME280;43090;52.604;13.318;2023-08-06T09:56:56;99846.16;;;18.70;100.00
57234;BME280;43090;52.604;13.318;2023-08-06T09:59:23;99857.28;;;18.75;100.00
57234;BME280;43090;52.604;13.318;2023-08-06T10:01:51;99848.03;;;18.84;100.00
57234;BME280;43090;52.604;13.318;2023-08-06T10:04:19;99840.72;;;18.70;100.00
57234;BME280;43090;52.604;13.318;2023-08-06T10:06:54;99804.59;;;18.54;100.00
57234;BME280;43090;52.604;13.318;2023-08-06T10:09:24;99821.28;;;18.66;100.00
57234;BME280;43090;52.604;13.318;2023-08-06T10:11:54;99804.59;;;18.39;100.00
57234;BME280;43090;52.604;13.318;2023-08-06T10:14:49;99815.78;;;18.36;100.00
57234;BME280;43090;52.604;13.318;2023-08-06T10:17:31;99802.03;;;18.00;100.00
57234;BME280;43090;52.604;13.318;2023-08-06T10:20:16;99831.28;;;18.27;100.00
57234;BME280;43090;52.604;13.318;2023-08-06T10:22:43;99845.84;;;18.26;100.00
57234;BME280;43090;52.604;13.318;2023-08-06T10:25:16;99831.88;;;18.14;100.00
57234;BME280;43090;52.604;13.318;2023-08-06T10:30:29;99836.22;;;18.24;100.00
57234;BME280;43090;52.604;13.318;2023-08-06T10:33:06;99824.56;;;18.15;100.00
57234;BME280;43090;52.604;13.318;2023-08-06T10:35:46;99820.72;;;17.86;100.00
57234;BME280;43090;52.604;13.318;2023-08-06T10:38:25;99819.16;;;18.15;100.00
57234;BME280;43090;52.604;13.318;2023-08-06T10:41:03;99817.91;;;18.26;100.00
57234;BME280;43090;52.604;13.318;2023-08-06T10:43:36;99828.31;;;18.37;100.00
57234;BME280;43090;52.604;13.318;2023-08-06T10:46:11;99821.69;;;18.40;100.00
57234;BME280;43090;52.604;13.318;2023-08-06T10:48:41;99819.38;;;18.52;100.00
57234;BME280;43090;52.604;13.318;2023-08-06T10:51:10;99807.81;;;18.58;100.00
57234;BME280;43090;52.604;13.318;2023-08-06T10:53:37;99807.91;;;18.64;99.77
57234;BME280;43090;52.604;13.318;2023-08-06T10:56:14;99824.47;;;18.70;100.00
57234;BME280;43090;52.604;13.318;2023-08-06T10:58:42;99807.53;;;18.68;100.00
57234;BME280;43090;52.604;13.318;2023-08-06T11:01:09;99808.69;;;18.88;99.31
57234;BME280;43090;52.604;13.318;2023-08-06T11:03:36;99795.03;;;18.96;97.76
57234;BME280;43090;52.604;13.318;2023-08-06T11:06:04;99779.84;;;18.57;97.29
57234;BME280;43090;52.604;13.318;2023-08-06T11:08:40;99767.34;;;18.56;98.31
57234;BME280;43090;52.604;13.318;2023-08-06T11:11:15;99777.25;;;18.79;98.42
57234;BME280;43090;52.604;13.318;2023-08-06T11:13:45;99772.03;;;18.92;97.54
57234;BME280;43090;52.604;13.318;2023-08-06T11:16:14;99777.66;;;18.91;96.17
57234;BME280;43090;52.604;13.318;2023-08-06T11:18:41;99782.94;;;18.69;99.25
57234;BME280;43090;52.604;13.318;2023-08-06T11:21:11;99774.91;;;18.76;99.12
57234;BME280;43090;52.604;13.318;2023-08-06T11:23:40;99775.75;;;18.61;99.16
57234;BME280;43090;52.604;13.318;2023-08-06T11:26:08;99768.44;;;18.62;97.21
57234;BME280;43090;52.604;13.318;2023-08-06T11:28:42;99772.28;;;18.53;99.56
57234;BME280;43090;52.604;13.318;2023-08-06T11:31:22;99770.56;;;18.52;100.00
57234;BME280;43090;52.604;13.318;2023-08-06T11:41:08;99762.34;;;18.30;100.00
57234;BME280;43090;52.604;13.318;2023-08-06T11:43:35;99736.44;;;18.27;100.00
57234;BME280;43090;52.604;13.318;2023-08-06T11:46:05;99748.69;;;18.38;100.00
57234;BME280;43090;52.604;13.318;2023-08-06T11:48:32;99749.66;;;18.60;100.00
57234;BME280;43090;52.604;13.318;2023-08-06T11:50:58;99762.16;;;18.46;100.00
57234;BME280;43090;52.604;13.318;2023-08-06T11:53:28;99747.00;;;18.37;100.00
57234;BME280;43090;52.604;13.318;2023-08-06T11:59:45;99739.25;;;18.19;100.00
57234;BME280;43090;52.604;13.318;2023-08-06T12:02:14;99757.25;;;18.27;100.00
57234;BME280;43090;52.604;13.318;2023-08-06T12:05:04;99731.72;;;18.06;100.00
57234;BME280;43090;52.604;13.318;2023-08-06T12:07:41;99741.28;;;18.17;100.00
57234;BME280;43090;52.604;13.318;2023-08-06T12:10:08;99717.97;;;18.31;100.00
57234;BME280;43090;52.604;13.318;2023-08-06T12:12:35;99728.72;;;18.54;100.00
57234;BME280;43090;52.604;13.318;2023-08-06T12:15:03;99720.47;;;18.47;100.00
57234;BME280;43090;52.604;13.318;2023-08-06T12:17:30;99701.75;;;18.23;100.00
57234;BME280;43090;52.604;13.318;2023-08-06T12:19:57;99718.97;;;18.60;100.00
57234;BME280;43090;52.604;13.318;2023-08-06T12:22:24;99725.63;;;18.87;100.00
57234;BME280;43090;52.604;13.318;2023-08-06T12:24:52;99718.81;;;18.61;100.00
57234;BME280;43090;52.604;13.318;2023-08-06T12:27:19;99703.94;;;18.57;100.00
57234;BME280;43090;52.604;13.318;2023-08-06T12:29:48;99721.44;;;18.70;100.00
57234;BME280;43090;52.604;13.318;2023-08-06T12:32:15;99721.63;;;18.83;100.00
57234;BME280;43090;52.604;13.318;2023-08-06T12:34:44;99723.75;;;18.43;100.00
57234;BME280;43090;52.604;13.318;2023-08-06T12:37:13;99717.00;;;18.39;100.00
57234;BME280;43090;52.604;13.318;2023-08-06T12:39:40;99726.66;;;18.71;100.00
57234;BME280;43090;52.604;13.318;2023-08-06T12:42:06;99723.19;;;18.62;100.00
57234;BME280;43090;52.604;13.318;2023-08-06T12:44:36;99717.03;;;18.54;100.00
57234;BME280;43090;52.604;13.318;2023-08-06T12:47:02;99721.72;;;18.75;100.00
57234;BME280;43090;52.604;13.318;2023-08-06T12:49:29;99727.59;;;18.78;100.00
57234;BME280;43090;52.604;13.318;2023-08-06T12:51:57;99729.66;;;18.61;100.00
57234;BME280;43090;52.604;13.318;2023-08-06T12:54:26;99723.22;;;18.77;100.00
57234;BME280;43090;52.604;13.318;2023-08-06T12:56:53;99736.00;;;18.84;100.00
57234;BME280;43090;52.604;13.318;2023-08-06T12:59:20;99730.56;;;18.84;100.00
57234;BME280;43090;52.604;13.318;2023-08-06T13:01:46;99726.66;;;18.86;100.00
57234;BME280;43090;52.604;13.318;2023-08-06T13:04:14;99720.19;;;18.87;100.00
57234;BME280;43090;52.604;13.318;2023-08-06T13:06:47;99720.78;;;18.97;100.00
57234;BME280;43090;52.604;13.318;2023-08-06T13:09:15;99724.59;;;18.73;100.00
57234;BME280;43090;52.604;13.318;2023-08-06T13:11:42;99726.56;;;18.94;100.00
57234;BME280;43090;52.604;13.318;2023-08-06T13:14:10;99727.03;;;18.98;100.00
57234;BME280;43090;52.604;13.318;2023-08-06T13:16:38;99725.75;;;18.94;100.00
57234;BME280;43090;52.604;13.318;2023-08-06T13:19:06;99731.69;;;18.74;100.00
57234;BME280;43090;52.604;13.318;2023-08-06T13:21:34;99731.16;;;18.79;100.00
57234;BME280;43090;52.604;13.318;2023-08-06T13:24:02;99715.16;;;18.84;100.00
57234;BME280;43090;52.604;13.318;2023-08-06T13:26:29;99725.94;;;18.92;100.00
57234;BME280;43090;52.604;13.318;2023-08-06T13:29:00;99719.84;;;18.90;100.00
57234;BME280;43090;52.604;13.318;2023-08-06T13:31:27;99723.03;;;18.79;100.00
57234;BME280;43090;52.604;13.318;2023-08-06T13:33:54;99712.75;;;18.89;100.00